Estiva, Brazil
Current Conditions -  °F | °C
As of 3:00 AM on Friday 31 Oct 2014 (Local Time) from SBSJ Reporting Station
Scattered Clouds Scattered Clouds  
Wind Chill: 75°   Ceiling: Unl
Heat Index: 75°   Visibility: 5mi
Dew Point: 63°   Wind: 0mph
Humidity: 65%   Direction: NA
Pressure: 29.91"   Gusts: NA
Location:  22.46°S, 46.02°W
Report Text: SBSJ 310500Z 00000KT 8000 SCT017 24/17 Q1013
Loading
Personal Weather Stations






























Interactive Weather Map
Tropical Storm Tracking
New forecast layout! Learn more

10-Day Weather Forecast

Advertisements
Track Severe Weather on mobile